Dixie — WDE5971 — position and weather

sailwx.info

Track history (hours):
 
Tides and Currents Weather Stations Pressure Air Temp Water Temp Dewpoint Dewpoint Depression Visibility Wind Speed Wind Dir Waves Ship Positions

Dixie

Owner: Fremont Tugboat Co, Seattle, WA. More information available from US FCC via Universal Licensing System and Coast Guard Vessel Documentation Center.

Last reported at 2018-Apr-25 16:15 UTC. Time now 2018-Apr-26 11:46 UTC.
Position N 47°39' W 122°21'.

Length 18 m; draft 3 m.

Type: Tug. MMSI: 367374040.

Date/timePositionNaut miles runAvg speedWind from/ knotsBaromVisibWave heightAir tempDewpointWater temp
2018-Apr-25 16:15N 47°39' W 122°21'1 3.9
2018-Apr-25 16:00N 47°38' W 122°20'0 0.0
2018-Apr-25 15:30N 47°38' W 122°20'0 0.1
2018-Apr-25 15:00N 47°38' W 122°20'1 2.0
2018-Apr-25 14:30N 47°39' W 122°21'0 0.0
2018-Apr-23 20:41N 47°39' W 122°21'1 5.4
2018-Apr-23 20:30N 47°39' W 122°22'1 2.3
2018-Apr-23 20:00N 47°40' W 122°23'2 4.0
2018-Apr-23 19:30N 47°39' W 122°21'0 0.3
2018-Apr-23 19:00N 47°39' W 122°21'0 0.0
2018-Apr-23 16:54N 47°39' W 122°21'  
2018-Apr-20 18:09N 47°39' W 122°21'0 1.3
2018-Apr-20 18:00N 47°39' W 122°20'0 0.0
2018-Apr-20 17:30N 47°39' W 122°20'0 0.3
2018-Apr-20 17:00N 47°39' W 122°21'0 0.0
2018-Apr-20 15:48N 47°39' W 122°21'2 5.4
2018-Apr-20 15:30N 47°40' W 122°23'1 1.1
2018-Apr-20 14:59N 47°40' W 122°23'2 4.0
2018-Apr-20 14:30N 47°39' W 122°21'0 0.0
2018-Apr-19 18:23N 47°39' W 122°21'2 4.1
2018-Apr-19 18:00N 47°40' W 122°23'0 0.0
2018-Apr-19 17:30N 47°40' W 122°23'1 1.9
2018-Apr-19 17:00N 47°39' W 122°22'1 1.2
2018-Apr-19 16:30N 47°39' W 122°21'2 3.3
2018-Apr-19 16:00N 47°40' W 122°23'1 1.1
2018-Apr-19 15:30N 47°40' W 122°24'2 4.4
2018-Apr-19 15:00N 47°39' W 122°21'0 0.0
2018-Apr-19 14:30N 47°39' W 122°21'0 0.0
2018-Apr-18 15:42N 47°39' W 122°21'1 3.8
2018-Apr-18 15:30N 47°39' W 122°22'1 2.8
2018-Apr-18 15:00N 47°40' W 122°23'1 1.5
2018-Apr-18 14:30N 47°39' W 122°23'1 2.8
2018-Apr-18 14:00N 47°39' W 122°21'0 0.0
2018-Apr-18 13:30N 47°39' W 122°21'0 0.0
2018-Apr-17 18:54N 47°39' W 122°21'2 5.3
2018-Apr-17 18:30N 47°40' W 122°23'0 0.2
2018-Apr-17 18:00N 47°40' W 122°24'0 0.0
2018-Apr-17 17:30N 47°40' W 122°24'0 0.0
2018-Apr-17 17:00N 47°40' W 122°24'1 1.8
2018-Apr-17 16:30N 47°40' W 122°22'1 2.6
2018-Apr-17 16:00N 47°39' W 122°21'  
Track history (hours):
 
Tides and Currents Weather Stations Pressure Air Temp Water Temp Dewpoint Dewpoint Depression Visibility Wind Speed Wind Dir Waves Ship Positions

Dixie

Owner: Fremont Tugboat Co, Seattle, WA. More information available from US FCC via Universal Licensing System and Coast Guard Vessel Documentation Center.

Last reported at 2018-Apr-25 16:15 UTC. Time now 2018-Apr-26 11:46 UTC.
Position N 47°39' W 122°21'.

Length 18 m; draft 3 m.

Type: Tug. MMSI: 367374040.

Date/timePositionNaut miles runAvg speedWind from/ knotsBaromVisibWave heightAir tempDewpointWater temp
2018-Apr-25 16:15N 47°39' W 122°21'1 3.9
2018-Apr-25 16:00N 47°38' W 122°20'0 0.0
2018-Apr-25 15:30N 47°38' W 122°20'0 0.1
2018-Apr-25 15:00N 47°38' W 122°20'1 2.0
2018-Apr-25 14:30N 47°39' W 122°21'0 0.0
2018-Apr-23 20:41N 47°39' W 122°21'1 5.4
2018-Apr-23 20:30N 47°39' W 122°22'1 2.3
2018-Apr-23 20:00N 47°40' W 122°23'2 4.0
2018-Apr-23 19:30N 47°39' W 122°21'0 0.3
2018-Apr-23 19:00N 47°39' W 122°21'0 0.0
2018-Apr-23 16:54N 47°39' W 122°21'  
2018-Apr-20 18:09N 47°39' W 122°21'0 1.3
2018-Apr-20 18:00N 47°39' W 122°20'0 0.0
2018-Apr-20 17:30N 47°39' W 122°20'0 0.3
2018-Apr-20 17:00N 47°39' W 122°21'0 0.0
2018-Apr-20 15:48N 47°39' W 122°21'2 5.4
2018-Apr-20 15:30N 47°40' W 122°23'1 1.1
2018-Apr-20 14:59N 47°40' W 122°23'2 4.0
2018-Apr-20 14:30N 47°39' W 122°21'0 0.0
2018-Apr-19 18:23N 47°39' W 122°21'2 4.1
2018-Apr-19 18:00N 47°40' W 122°23'0 0.0
2018-Apr-19 17:30N 47°40' W 122°23'1 1.9
2018-Apr-19 17:00N 47°39' W 122°22'1 1.2
2018-Apr-19 16:30N 47°39' W 122°21'2 3.3
2018-Apr-19 16:00N 47°40' W 122°23'1 1.1
2018-Apr-19 15:30N 47°40' W 122°24'2 4.4
2018-Apr-19 15:00N 47°39' W 122°21'0 0.0
2018-Apr-19 14:30N 47°39' W 122°21'0 0.0
2018-Apr-18 15:42N 47°39' W 122°21'1 3.8
2018-Apr-18 15:30N 47°39' W 122°22'1 2.8
2018-Apr-18 15:00N 47°40' W 122°23'1 1.5
2018-Apr-18 14:30N 47°39' W 122°23'1 2.8
2018-Apr-18 14:00N 47°39' W 122°21'0 0.0
2018-Apr-18 13:30N 47°39' W 122°21'0 0.0
2018-Apr-17 18:54N 47°39' W 122°21'2 5.3
2018-Apr-17 18:30N 47°40' W 122°23'0 0.2
2018-Apr-17 18:00N 47°40' W 122°24'0 0.0
2018-Apr-17 17:30N 47°40' W 122°24'0 0.0
2018-Apr-17 17:00N 47°40' W 122°24'1 1.8
2018-Apr-17 16:30N 47°40' W 122°22'1 2.6
2018-Apr-17 16:00N 47°39' W 122°21'  

Dump ship's entire track history